Portada
METAR-TAF:

METAR-TAF

Aeroports :

Aurangabad, Índia

latitud: 19-51-46N, longitud: 75-23-53E, altitud: 582 m

Observació

L'informe es va fer fa 1 hora i 3 minuts, a les 08:00 UTC
Vent 4 kt del Oest/Nord-Oest
Temperatura 40°C
Humitat 22%
Pressió 1009 hPa
Visibilitat: 6000 m

METAR: VAAU 230800Z 29004KT 6000 NSC 40/14 Q1009 NOSIG

Hora: 14:33 (09:03 UTC)

Pronòstic

L'informe es va fer fa 1 hora i 3 minuts, a les 08:00 UTC
Pronòstic vàlid del 23 a les 09 UTC al 23 a les 18 UTC
Vent 5 kt del Oest
Visibilitat: 6000 m
Escasses núvols a una alçada de 2000 ft
Temporalment
l' 23 a les 11 UTC al 23 a les 18 UTC
Visibilitat: 3000 m
Núvols disperses a una alçada de 1200 ft
Escasses núvols a una alçada de 2000 ft, Cumulonimbus.
Cel ennuvolat a una alçada de 9000 ft
tempesta, pluja, pluja

TAF: VAAU 230800Z 2309/2318 28005KT 6000 FEW020 TEMPO 2311/2318 3000 -TSRA -RA SCT012 FEW020CB BKN090

Observacions i pronòstics meteorològics de més de 4000 aeroports (METAR i TAF).

Les estacions disponibles són els punts grocs i vermells al mapa.

Posi el ratolí al punt desitjat per veure el nom de l'estació.

Feu clic per veure les observacions i els pronòstics meteorològics.

Per canviar el mapa: feu clic els botons verds amb una creu de color negre per apropar; al botó verd amb un guió per allunyar la imatge; o en les fletxes verdes per a mapes adjacents.


METAR-TAF: